Main page
METAR-TAF:

METAR-TAF

Airports :

Southampton Airport

Southampton, England

latitude: 50-54N, longitude: 001-24W, elevation: 9 m

Current weather observation

The report was made 1 hour and 36 minutes ago, at 22:20 UTC
Wind 4 kt from the North
Temperature 4°C
Humidity 93%
Pressure 1013 hPa
Visibility: 3500 m
Broken clouds at a height of 400 ft
mist

METAR: EGHI 172220Z 36004KT 3500 BR BKN004 04/03 Q1013

Time: 23:56 (23:56 UTC)

Forecast

The report was made 3 hours and 58 minutes ago, at 19:58 UTC
Forecast valid from 17 at 21 UTC to 17 at 23 UTC
Wind 3 kt from variable directions
Visibility: 6000 m
Scattered clouds at a height of 1000 ft
Shallow fog
Temporary
from 17 at 21 UTC to 17 at 23 UTC
Visibility: 3000 m
Broken clouds at a height of 700 ft
mist
Probability 30%
from 17 at 21 UTC to 17 at 23 UTC
Broken clouds at a height of 300 ft

TAF: EGHI 171958Z 1721/1723 VRB03KT 6000 MIFG SCT010 TEMPO 1721/1723 3000 BR BKN007 PROB30 1721/1723 BKN003

Weather observations and forecasts of more than 4000 airports (METAR and TAF reports).

The available stations are represented by yellow and red dots on the map.

Hover mouse over dot to see the name of the station.

Then click to see weather observations and forecasts.

To change the map : click on the green buttons with a black cross to zoom in, on the green button with a dash to zoom out, or on the green arrows for adjacent maps.


METAR-TAF: